sensor_id;sensor_type;location;lat;lon;timestamp;temperature;humidity
37530;DHT22;23374;52.758;6.872;2023-02-18T00:01:56;8.30;1.00
37530;DHT22;23374;52.758;6.872;2023-02-18T00:04:17;8.30;1.00
37530;DHT22;23374;52.758;6.872;2023-02-18T00:06:38;8.30;1.00
37530;DHT22;23374;52.758;6.872;2023-02-18T00:10:14;8.30;99.90
37530;DHT22;23374;52.758;6.872;2023-02-18T00:12:35;8.20;99.90
37530;DHT22;23374;52.758;6.872;2023-02-18T00:14:56;8.20;99.90
37530;DHT22;23374;52.758;6.872;2023-02-18T00:17:17;8.20;99.90
37530;DHT22;23374;52.758;6.872;2023-02-18T00:19:37;8.20;99.90
37530;DHT22;23374;52.758;6.872;2023-02-18T00:21:58;8.30;99.90
37530;DHT22;23374;52.758;6.872;2023-02-18T00:24:18;8.30;99.90
37530;DHT22;23374;52.758;6.872;2023-02-18T00:26:39;8.30;99.90
37530;DHT22;23374;52.758;6.872;2023-02-18T00:29:00;8.40;99.90
37530;DHT22;23374;52.758;6.872;2023-02-18T00:31:30;8.40;20.80
37530;DHT22;23374;52.758;6.872;2023-02-18T00:33:51;8.40;1.00
37530;DHT22;23374;52.758;6.872;2023-02-18T00:36:19;8.50;1.00
37530;DHT22;23374;52.758;6.872;2023-02-18T00:38:45;8.50;99.90
37530;DHT22;23374;52.758;6.872;2023-02-18T00:41:05;8.50;99.90
37530;DHT22;23374;52.758;6.872;2023-02-18T00:43:26;8.50;16.90
37530;DHT22;23374;52.758;6.872;2023-02-18T00:45:47;8.60;1.00
37530;DHT22;23374;52.758;6.872;2023-02-18T00:48:07;8.60;1.00
37530;DHT22;23374;52.758;6.872;2023-02-18T00:50:28;8.60;1.00
37530;DHT22;23374;52.758;6.872;2023-02-18T00:52:48;8.60;1.00
37530;DHT22;23374;52.758;6.872;2023-02-18T00:55:08;8.60;1.00
37530;DHT22;23374;52.758;6.872;2023-02-18T00:57:29;8.60;1.00
37530;DHT22;23374;52.758;6.872;2023-02-18T00:59:49;8.60;24.40
37530;DHT22;23374;52.758;6.872;2023-02-18T01:02:10;8.50;99.90
37530;DHT22;23374;52.758;6.872;2023-02-18T01:04:30;8.50;99.90
37530;DHT22;23374;52.758;6.872;2023-02-18T01:06:50;8.40;1.00
37530;DHT22;23374;52.758;6.872;2023-02-18T01:10:18;8.40;1.00
37530;DHT22;23374;52.758;6.872;2023-02-18T01:12:39;8.40;86.10
37530;DHT22;23374;52.758;6.872;2023-02-18T01:14:59;8.40;99.90
37530;DHT22;23374;52.758;6.872;2023-02-18T01:17:19;8.40;1.00
37530;DHT22;23374;52.758;6.872;2023-02-18T01:19:39;8.40;1.00
37530;DHT22;23374;52.758;6.872;2023-02-18T01:22:00;8.40;1.00
37530;DHT22;23374;52.758;6.872;2023-02-18T01:24:20;8.40;14.20
37530;DHT22;23374;52.758;6.872;2023-02-18T01:26:41;8.40;99.90
37530;DHT22;23374;52.758;6.872;2023-02-18T01:29:01;8.40;99.90
37530;DHT22;23374;52.758;6.872;2023-02-18T01:31:21;8.40;99.90
37530;DHT22;23374;52.758;6.872;2023-02-18T01:33:43;8.40;99.90
37530;DHT22;23374;52.758;6.872;2023-02-18T01:36:04;8.40;1.00
37530;DHT22;23374;52.758;6.872;2023-02-18T01:38:25;8.40;1.00
37530;DHT22;23374;52.758;6.872;2023-02-18T01:40:49;8.50;1.00
37530;DHT22;23374;52.758;6.872;2023-02-18T01:43:12;8.50;1.00
37530;DHT22;23374;52.758;6.872;2023-02-18T01:52:36;8.60;1.00
37530;DHT22;23374;52.758;6.872;2023-02-18T01:54:56;8.60;18.00
37530;DHT22;23374;52.758;6.872;2023-02-18T01:57:31;8.70;44.80
37530;DHT22;23374;52.758;6.872;2023-02-18T02:00:06;8.70;94.90
37530;DHT22;23374;52.758;6.872;2023-02-18T02:02:32;8.70;99.90
37530;DHT22;23374;52.758;6.872;2023-02-18T02:04:54;8.80;99.90
37530;DHT22;23374;52.758;6.872;2023-02-18T02:07:18;8.80;99.90
37530;DHT22;23374;52.758;6.872;2023-02-18T02:10:37;8.80;99.90
37530;DHT22;23374;52.758;6.872;2023-02-18T02:13:39;8.80;99.90
37530;DHT22;23374;52.758;6.872;2023-02-18T02:16:46;8.90;99.90
37530;DHT22;23374;52.758;6.872;2023-02-18T02:21:19;8.90;99.90
37530;DHT22;23374;52.758;6.872;2023-02-18T02:25:47;8.90;99.90
37530;DHT22;23374;52.758;6.872;2023-02-18T02:29:45;8.90;99.90
37530;DHT22;23374;52.758;6.872;2023-02-18T02:32:52;8.90;99.90
37530;DHT22;23374;52.758;6.872;2023-02-18T02:36:58;8.90;99.90
37530;DHT22;23374;52.758;6.872;2023-02-18T02:45:28;8.80;99.90
37530;DHT22;23374;52.758;6.872;2023-02-18T02:48:14;8.80;99.90
37530;DHT22;23374;52.758;6.872;2023-02-18T02:52:27;8.80;99.90
37530;DHT22;23374;52.758;6.872;2023-02-18T02:54:51;8.80;99.90
37530;DHT22;23374;52.758;6.872;2023-02-18T02:57:56;8.80;99.90
37530;DHT22;23374;52.758;6.872;2023-02-18T03:00:22;8.80;99.90
37530;DHT22;23374;52.758;6.872;2023-02-18T03:11:13;8.90;99.90
37530;DHT22;23374;52.758;6.872;2023-02-18T03:14:10;8.90;99.90
37530;DHT22;23374;52.758;6.872;2023-02-18T03:17:08;8.90;99.90
37530;DHT22;23374;52.758;6.872;2023-02-18T03:19:37;9.00;99.90
37530;DHT22;23374;52.758;6.872;2023-02-18T03:22:12;9.00;99.90
37530;DHT22;23374;52.758;6.872;2023-02-18T03:24:39;9.00;99.90
37530;DHT22;23374;52.758;6.872;2023-02-18T03:27:13;9.00;99.90
37530;DHT22;23374;52.758;6.872;2023-02-18T03:29:36;9.00;99.90
37530;DHT22;23374;52.758;6.872;2023-02-18T03:32:02;9.00;99.90
37530;DHT22;23374;52.758;6.872;2023-02-18T03:34:29;9.10;99.90
37530;DHT22;23374;52.758;6.872;2023-02-18T03:36:50;9.10;99.90
37530;DHT22;23374;52.758;6.872;2023-02-18T03:39:15;9.10;99.90
37530;DHT22;23374;52.758;6.872;2023-02-18T03:41:36;9.10;99.90
37530;DHT22;23374;52.758;6.872;2023-02-18T03:44:05;9.20;99.90
37530;DHT22;23374;52.758;6.872;2023-02-18T03:46:27;9.20;99.90
37530;DHT22;23374;52.758;6.872;2023-02-18T03:48:48;9.20;99.90
37530;DHT22;23374;52.758;6.872;2023-02-18T03:51:08;9.20;99.90
37530;DHT22;23374;52.758;6.872;2023-02-18T03:53:29;9.20;99.90
37530;DHT22;23374;52.758;6.872;2023-02-18T03:55:49;9.30;99.90
37530;DHT22;23374;52.758;6.872;2023-02-18T03:58:09;9.30;99.90
37530;DHT22;23374;52.758;6.872;2023-02-18T04:00:30;9.30;99.90
37530;DHT22;23374;52.758;6.872;2023-02-18T04:02:51;9.30;99.90
37530;DHT22;23374;52.758;6.872;2023-02-18T04:05:11;9.30;99.90
37530;DHT22;23374;52.758;6.872;2023-02-18T04:07:32;9.30;99.90
37530;DHT22;23374;52.758;6.872;2023-02-18T04:10:34;9.40;99.90
37530;DHT22;23374;52.758;6.872;2023-02-18T04:12:55;9.40;99.90
37530;DHT22;23374;52.758;6.872;2023-02-18T04:15:16;9.40;99.90
37530;DHT22;23374;52.758;6.872;2023-02-18T04:17:36;9.40;99.90
37530;DHT22;23374;52.758;6.872;2023-02-18T04:19:56;9.40;99.90
37530;DHT22;23374;52.758;6.872;2023-02-18T04:22:17;9.50;99.90
37530;DHT22;23374;52.758;6.872;2023-02-18T04:24:37;9.50;99.90
37530;DHT22;23374;52.758;6.872;2023-02-18T04:26:57;9.50;99.90
37530;DHT22;23374;52.758;6.872;2023-02-18T04:29:18;9.50;99.90
37530;DHT22;23374;52.758;6.872;2023-02-18T04:31:38;9.50;99.90
37530;DHT22;23374;52.758;6.872;2023-02-18T04:33:58;9.50;99.90
37530;DHT22;23374;52.758;6.872;2023-02-18T04:36:18;9.50;99.90
37530;DHT22;23374;52.758;6.872;2023-02-18T04:38:39;9.50;99.90
37530;DHT22;23374;52.758;6.872;2023-02-18T04:41:01;9.50;99.90
37530;DHT22;23374;52.758;6.872;2023-02-18T04:43:21;9.50;99.90
37530;DHT22;23374;52.758;6.872;2023-02-18T04:45:41;9.50;99.90
37530;DHT22;23374;52.758;6.872;2023-02-18T04:48:02;9.60;99.90
37530;DHT22;23374;52.758;6.872;2023-02-18T04:50:23;9.60;99.90
37530;DHT22;23374;52.758;6.872;2023-02-18T04:52:43;9.60;99.90
37530;DHT22;23374;52.758;6.872;2023-02-18T04:55:04;9.60;99.90
37530;DHT22;23374;52.758;6.872;2023-02-18T04:57:25;9.60;99.90
37530;DHT22;23374;52.758;6.872;2023-02-18T04:59:45;9.60;99.90
37530;DHT22;23374;52.758;6.872;2023-02-18T05:02:06;9.60;99.90
37530;DHT22;23374;52.758;6.872;2023-02-18T05:04:26;9.60;99.90
37530;DHT22;23374;52.758;6.872;2023-02-18T05:06:47;9.60;99.90
37530;DHT22;23374;52.758;6.872;2023-02-18T05:10:40;9.60;99.90
37530;DHT22;23374;52.758;6.872;2023-02-18T05:13:00;9.60;99.90
37530;DHT22;23374;52.758;6.872;2023-02-18T05:15:20;9.60;99.90
37530;DHT22;23374;52.758;6.872;2023-02-18T05:17:41;9.60;99.90
37530;DHT22;23374;52.758;6.872;2023-02-18T05:20:01;9.60;99.90
37530;DHT22;23374;52.758;6.872;2023-02-18T05:22:22;9.60;99.90
37530;DHT22;23374;52.758;6.872;2023-02-18T05:24:42;9.60;99.90
37530;DHT22;23374;52.758;6.872;2023-02-18T05:27:02;9.60;99.90
37530;DHT22;23374;52.758;6.872;2023-02-18T05:29:22;9.60;99.90
37530;DHT22;23374;52.758;6.872;2023-02-18T05:31:43;9.60;99.90
37530;DHT22;23374;52.758;6.872;2023-02-18T05:34:03;9.60;99.90
37530;DHT22;23374;52.758;6.872;2023-02-18T05:36:24;9.60;99.90
37530;DHT22;23374;52.758;6.872;2023-02-18T05:38:44;9.60;99.90
37530;DHT22;23374;52.758;6.872;2023-02-18T05:41:05;9.60;99.90
37530;DHT22;23374;52.758;6.872;2023-02-18T05:43:25;9.60;99.90
37530;DHT22;23374;52.758;6.872;2023-02-18T05:45:45;9.50;99.90
37530;DHT22;23374;52.758;6.872;2023-02-18T05:48:06;9.50;99.90
37530;DHT22;23374;52.758;6.872;2023-02-18T05:50:27;9.50;99.90
37530;DHT22;23374;52.758;6.872;2023-02-18T05:52:48;9.50;99.90
37530;DHT22;23374;52.758;6.872;2023-02-18T05:55:08;9.50;99.90
37530;DHT22;23374;52.758;6.872;2023-02-18T05:57:29;9.50;99.90
37530;DHT22;23374;52.758;6.872;2023-02-18T05:59:50;9.50;99.90
37530;DHT22;23374;52.758;6.872;2023-02-18T06:02:10;9.50;99.90
37530;DHT22;23374;52.758;6.872;2023-02-18T06:04:30;9.50;99.90
37530;DHT22;23374;52.758;6.872;2023-02-18T06:06:51;9.50;99.90
37530;DHT22;23374;52.758;6.872;2023-02-18T06:10:46;9.50;99.90
37530;DHT22;23374;52.758;6.872;2023-02-18T06:13:06;9.50;99.90
37530;DHT22;23374;52.758;6.872;2023-02-18T06:15:27;9.50;99.90
37530;DHT22;23374;52.758;6.872;2023-02-18T06:17:47;9.50;99.90
37530;DHT22;23374;52.758;6.872;2023-02-18T06:20:09;9.50;99.90
37530;DHT22;23374;52.758;6.872;2023-02-18T06:22:30;9.60;99.90
37530;DHT22;23374;52.758;6.872;2023-02-18T06:24:50;9.60;99.90
37530;DHT22;23374;52.758;6.872;2023-02-18T06:27:11;9.60;99.90
37530;DHT22;23374;52.758;6.872;2023-02-18T06:29:31;9.60;99.90
37530;DHT22;23374;52.758;6.872;2023-02-18T06:31:52;9.60;99.90
37530;DHT22;23374;52.758;6.872;2023-02-18T06:34:13;9.60;99.90
37530;DHT22;23374;52.758;6.872;2023-02-18T06:36:33;9.60;99.90
37530;DHT22;23374;52.758;6.872;2023-02-18T06:38:53;9.70;99.90
37530;DHT22;23374;52.758;6.872;2023-02-18T06:41:16;9.70;99.90
37530;DHT22;23374;52.758;6.872;2023-02-18T06:43:37;9.70;99.90
37530;DHT22;23374;52.758;6.872;2023-02-18T06:45:57;9.70;99.90
37530;DHT22;23374;52.758;6.872;2023-02-18T06:48:18;9.70;99.90
37530;DHT22;23374;52.758;6.872;2023-02-18T06:50:40;9.70;99.90
37530;DHT22;23374;52.758;6.872;2023-02-18T06:53:00;9.70;99.90
37530;DHT22;23374;52.758;6.872;2023-02-18T06:55:21;9.80;99.90
37530;DHT22;23374;52.758;6.872;2023-02-18T06:57:41;9.80;99.90
37530;DHT22;23374;52.758;6.872;2023-02-18T07:00:03;9.80;99.90
37530;DHT22;23374;52.758;6.872;2023-02-18T07:02:24;9.80;99.90
37530;DHT22;23374;52.758;6.872;2023-02-18T07:04:44;9.80;99.90
37530;DHT22;23374;52.758;6.872;2023-02-18T07:07:05;9.90;99.90
37530;DHT22;23374;52.758;6.872;2023-02-18T07:09:25;9.90;99.90
37530;DHT22;23374;52.758;6.872;2023-02-18T07:11:47;9.90;99.90
37530;DHT22;23374;52.758;6.872;2023-02-18T07:14:07;10.00;99.90
37530;DHT22;23374;52.758;6.872;2023-02-18T07:16:27;10.00;99.90
37530;DHT22;23374;52.758;6.872;2023-02-18T07:18:47;10.00;99.90
37530;DHT22;23374;52.758;6.872;2023-02-18T07:21:08;10.00;99.90
37530;DHT22;23374;52.758;6.872;2023-02-18T07:23:28;10.10;99.90
37530;DHT22;23374;52.758;6.872;2023-02-18T07:25:48;10.10;99.90
37530;DHT22;23374;52.758;6.872;2023-02-18T07:28:09;10.10;99.90
37530;DHT22;23374;52.758;6.872;2023-02-18T07:30:30;10.10;99.90
37530;DHT22;23374;52.758;6.872;2023-02-18T07:32:50;10.20;99.90
37530;DHT22;23374;52.758;6.872;2023-02-18T07:35:14;10.20;99.90
37530;DHT22;23374;52.758;6.872;2023-02-18T07:37:34;10.20;99.90
37530;DHT22;23374;52.758;6.872;2023-02-18T07:39:55;10.20;99.90
37530;DHT22;23374;52.758;6.872;2023-02-18T07:42:15;10.20;99.90
37530;DHT22;23374;52.758;6.872;2023-02-18T07:44:36;10.30;99.90
37530;DHT22;23374;52.758;6.872;2023-02-18T07:46:56;10.30;99.90
37530;DHT22;23374;52.758;6.872;2023-02-18T07:49:17;10.30;99.90
37530;DHT22;23374;52.758;6.872;2023-02-18T07:51:38;10.30;99.90
37530;DHT22;23374;52.758;6.872;2023-02-18T07:53:59;10.30;99.90
37530;DHT22;23374;52.758;6.872;2023-02-18T07:56:19;10.30;99.90
37530;DHT22;23374;52.758;6.872;2023-02-18T07:58:40;10.30;99.90
37530;DHT22;23374;52.758;6.872;2023-02-18T08:01:09;10.20;99.90
37530;DHT22;23374;52.758;6.872;2023-02-18T08:03:31;10.20;99.90
37530;DHT22;23374;52.758;6.872;2023-02-18T08:05:53;10.20;99.90
37530;DHT22;23374;52.758;6.872;2023-02-18T08:08:19;10.20;99.90
37530;DHT22;23374;52.758;6.872;2023-02-18T08:10:40;10.20;99.90
37530;DHT22;23374;52.758;6.872;2023-02-18T08:13:01;10.20;99.90
37530;DHT22;23374;52.758;6.872;2023-02-18T08:15:21;10.20;99.90
37530;DHT22;23374;52.758;6.872;2023-02-18T08:17:41;10.20;99.90
37530;DHT22;23374;52.758;6.872;2023-02-18T08:20:02;10.20;99.90
37530;DHT22;23374;52.758;6.872;2023-02-18T08:22:23;10.30;99.90
37530;DHT22;23374;52.758;6.872;2023-02-18T08:24:43;10.30;99.90
37530;DHT22;23374;52.758;6.872;2023-02-18T08:27:04;10.30;99.90
37530;DHT22;23374;52.758;6.872;2023-02-18T08:29:24;10.40;99.90
37530;DHT22;23374;52.758;6.872;2023-02-18T08:31:44;10.40;99.90
37530;DHT22;23374;52.758;6.872;2023-02-18T08:34:05;10.40;99.90
37530;DHT22;23374;52.758;6.872;2023-02-18T08:36:27;10.40;99.90
37530;DHT22;23374;52.758;6.872;2023-02-18T08:38:47;10.50;99.90
37530;DHT22;23374;52.758;6.872;2023-02-18T08:41:08;10.50;99.90
37530;DHT22;23374;52.758;6.872;2023-02-18T08:43:29;10.50;99.90
37530;DHT22;23374;52.758;6.872;2023-02-18T08:45:49;10.50;99.90
37530;DHT22;23374;52.758;6.872;2023-02-18T08:48:11;10.50;99.90
37530;DHT22;23374;52.758;6.872;2023-02-18T08:50:33;10.50;99.90
37530;DHT22;23374;52.758;6.872;2023-02-18T08:52:54;10.50;99.90
37530;DHT22;23374;52.758;6.872;2023-02-18T08:55:14;10.60;99.90
37530;DHT22;23374;52.758;6.872;2023-02-18T08:57:34;10.60;99.90
37530;DHT22;23374;52.758;6.872;2023-02-18T08:59:55;10.60;99.90
37530;DHT22;23374;52.758;6.872;2023-02-18T09:02:15;10.60;99.90
37530;DHT22;23374;52.758;6.872;2023-02-18T09:04:35;10.50;99.90
37530;DHT22;23374;52.758;6.872;2023-02-18T09:06:56;10.60;99.90
37530;DHT22;23374;52.758;6.872;2023-02-18T09:09:17;10.60;99.90
37530;DHT22;23374;52.758;6.872;2023-02-18T09:11:37;10.60;99.90
37530;DHT22;23374;52.758;6.872;2023-02-18T09:13:58;10.60;99.90
37530;DHT22;23374;52.758;6.872;2023-02-18T09:16:18;10.60;99.90
37530;DHT22;23374;52.758;6.872;2023-02-18T09:18:39;10.50;99.90
37530;DHT22;23374;52.758;6.872;2023-02-18T09:21:00;10.50;99.90
37530;DHT22;23374;52.758;6.872;2023-02-18T09:23:20;10.50;99.90
37530;DHT22;23374;52.758;6.872;2023-02-18T09:25:41;10.40;99.90
37530;DHT22;23374;52.758;6.872;2023-02-18T09:28:01;10.40;99.90
37530;DHT22;23374;52.758;6.872;2023-02-18T09:30:21;10.30;99.90
37530;DHT22;23374;52.758;6.872;2023-02-18T09:32:43;10.30;99.90
37530;DHT22;23374;52.758;6.872;2023-02-18T09:35:06;10.30;99.90
37530;DHT22;23374;52.758;6.872;2023-02-18T09:37:29;10.20;99.90
37530;DHT22;23374;52.758;6.872;2023-02-18T09:39:49;10.20;99.90
37530;DHT22;23374;52.758;6.872;2023-02-18T09:42:14;10.10;99.90
37530;DHT22;23374;52.758;6.872;2023-02-18T09:44:46;10.10;99.90
37530;DHT22;23374;52.758;6.872;2023-02-18T09:47:40;10.10;99.90
37530;DHT22;23374;52.758;6.872;2023-02-18T09:50:22;10.00;99.90
37530;DHT22;23374;52.758;6.872;2023-02-18T09:52:42;10.00;99.90
37530;DHT22;23374;52.758;6.872;2023-02-18T09:55:32;10.00;99.90
37530;DHT22;23374;52.758;6.872;2023-02-18T09:58:00;10.00;99.90
37530;DHT22;23374;52.758;6.872;2023-02-18T10:07:16;9.90;99.90
37530;DHT22;23374;52.758;6.872;2023-02-18T10:09:38;9.90;99.90
37530;DHT22;23374;52.758;6.872;2023-02-18T10:12:12;9.80;99.90
37530;DHT22;23374;52.758;6.872;2023-02-18T10:14:33;9.80;99.90
37530;DHT22;23374;52.758;6.872;2023-02-18T10:16:55;9.80;99.90
37530;DHT22;23374;52.758;6.872;2023-02-18T10:19:59;9.80;99.90
37530;DHT22;23374;52.758;6.872;2023-02-18T10:22:24;9.70;99.90
37530;DHT22;23374;52.758;6.872;2023-02-18T10:25:00;9.70;99.90
37530;DHT22;23374;52.758;6.872;2023-02-18T10:27:33;9.70;99.90
37530;DHT22;23374;52.758;6.872;2023-02-18T10:30:31;9.70;99.90
37530;DHT22;23374;52.758;6.872;2023-02-18T10:34:39;9.70;99.90
37530;DHT22;23374;52.758;6.872;2023-02-18T10:37:14;9.70;99.90
37530;DHT22;23374;52.758;6.872;2023-02-18T10:42:45;9.70;99.90
37530;DHT22;23374;52.758;6.872;2023-02-18T10:47:10;9.80;99.90
37530;DHT22;23374;52.758;6.872;2023-02-18T10:51:14;9.90;99.90
37530;DHT22;23374;52.758;6.872;2023-02-18T10:53:39;10.00;99.90
37530;DHT22;23374;52.758;6.872;2023-02-18T10:56:02;10.10;99.90
37530;DHT22;23374;52.758;6.872;2023-02-18T10:58:35;10.10;99.90
37530;DHT22;23374;52.758;6.872;2023-02-18T11:00:56;10.20;99.90
37530;DHT22;23374;52.758;6.872;2023-02-18T11:03:43;10.30;99.90
37530;DHT22;23374;52.758;6.872;2023-02-18T11:06:04;10.30;99.90
37530;DHT22;23374;52.758;6.872;2023-02-18T11:08:28;10.30;99.90
37530;DHT22;23374;52.758;6.872;2023-02-18T11:10:53;10.30;99.90
37530;DHT22;23374;52.758;6.872;2023-02-18T11:13:22;10.40;99.90
37530;DHT22;23374;52.758;6.872;2023-02-18T11:16:03;10.40;99.90
37530;DHT22;23374;52.758;6.872;2023-02-18T11:18:43;10.40;98.10
37530;DHT22;23374;52.758;6.872;2023-02-18T11:21:35;10.50;99.90
37530;DHT22;23374;52.758;6.872;2023-02-18T11:23:56;10.50;96.50
37530;DHT22;23374;52.758;6.872;2023-02-18T11:26:33;10.50;99.90
37530;DHT22;23374;52.758;6.872;2023-02-18T11:29:11;10.50;82.50
37530;DHT22;23374;52.758;6.872;2023-02-18T11:31:44;10.60;70.90
37530;DHT22;23374;52.758;6.872;2023-02-18T11:34:09;10.60;86.80
37530;DHT22;23374;52.758;6.872;2023-02-18T11:36:35;10.60;72.20
37530;DHT22;23374;52.758;6.872;2023-02-18T11:39:20;10.60;78.10
37530;DHT22;23374;52.758;6.872;2023-02-18T11:41:46;10.70;98.20
37530;DHT22;23374;52.758;6.872;2023-02-18T11:45:27;10.70;97.70
37530;DHT22;23374;52.758;6.872;2023-02-18T11:48:14;10.70;59.80
37530;DHT22;23374;52.758;6.872;2023-02-18T11:50:35;10.70;65.60
37530;DHT22;23374;52.758;6.872;2023-02-18T11:52:56;10.70;77.20
37530;DHT22;23374;52.758;6.872;2023-02-18T11:55:29;10.70;86.60
37530;DHT22;23374;52.758;6.872;2023-02-18T11:58:01;10.80;77.50
37530;DHT22;23374;52.758;6.872;2023-02-18T12:00:39;10.80;65.10
37530;DHT22;23374;52.758;6.872;2023-02-18T12:03:04;10.80;50.20
37530;DHT22;23374;52.758;6.872;2023-02-18T12:05:27;10.90;24.40
37530;DHT22;23374;52.758;6.872;2023-02-18T12:08:06;10.90;29.40
37530;DHT22;23374;52.758;6.872;2023-02-18T12:11:14;10.90;31.90
37530;DHT22;23374;52.758;6.872;2023-02-18T12:13:47;10.90;21.10
37530;DHT22;23374;52.758;6.872;2023-02-18T12:21:53;11.00;58.20
37530;DHT22;23374;52.758;6.872;2023-02-18T12:24:44;11.00;17.90
37530;DHT22;23374;52.758;6.872;2023-02-18T12:27:30;11.10;1.00
37530;DHT22;23374;52.758;6.872;2023-02-18T12:44:17;11.20;1.00
37530;DHT22;23374;52.758;6.872;2023-02-18T12:47:20;11.20;1.00
37530;DHT22;23374;52.758;6.872;2023-02-18T12:50:30;11.20;1.00
37530;DHT22;23374;52.758;6.872;2023-02-18T12:57:06;11.30;1.00
37530;DHT22;23374;52.758;6.872;2023-02-18T13:16:16;11.50;1.00
37530;DHT22;23374;52.758;6.872;2023-02-18T13:24:38;11.60;1.00
37530;DHT22;23374;52.758;6.872;2023-02-18T13:27:41;11.60;1.00
37530;DHT22;23374;52.758;6.872;2023-02-18T13:37:21;11.70;99.90
37530;DHT22;23374;52.758;6.872;2023-02-18T13:39:50;11.60;99.90
37530;DHT22;23374;52.758;6.872;2023-02-18T13:43:46;11.70;99.90
37530;DHT22;23374;52.758;6.872;2023-02-18T13:46:12;11.70;99.90
37530;DHT22;23374;52.758;6.872;2023-02-18T13:49:39;11.70;99.90
37530;DHT22;23374;52.758;6.872;2023-02-18T13:52:02;11.70;99.90
37530;DHT22;23374;52.758;6.872;2023-02-18T13:54:31;11.70;99.90
37530;DHT22;23374;52.758;6.872;2023-02-18T13:57:20;11.70;1.00
37530;DHT22;23374;52.758;6.872;2023-02-18T13:59:48;11.70;1.00
37530;DHT22;23374;52.758;6.872;2023-02-18T14:05:41;11.70;1.00
37530;DHT22;23374;52.758;6.872;2023-02-18T14:08:32;11.60;99.90
37530;DHT22;23374;52.758;6.872;2023-02-18T14:17:41;11.60;1.00
37530;DHT22;23374;52.758;6.872;2023-02-18T14:20:49;11.50;1.00
37530;DHT22;23374;52.758;6.872;2023-02-18T14:24:43;11.50;1.00
37530;DHT22;23374;52.758;6.872;2023-02-18T14:27:15;11.50;1.00
37530;DHT22;23374;52.758;6.872;2023-02-18T14:29:35;11.50;1.00
37530;DHT22;23374;52.758;6.872;2023-02-18T14:32:02;11.50;1.00
37530;DHT22;23374;52.758;6.872;2023-02-18T14:35:29;11.50;1.00
37530;DHT22;23374;52.758;6.872;2023-02-18T14:41:45;11.50;1.00
37530;DHT22;23374;52.758;6.872;2023-02-18T14:50:31;11.50;99.90
37530;DHT22;23374;52.758;6.872;2023-02-18T14:52:56;11.50;99.90
37530;DHT22;23374;52.758;6.872;2023-02-18T14:55:28;11.50;99.90
37530;DHT22;23374;52.758;6.872;2023-02-18T14:58:27;11.50;99.90
37530;DHT22;23374;52.758;6.872;2023-02-18T15:00:48;11.50;99.90
37530;DHT22;23374;52.758;6.872;2023-02-18T15:03:17;11.50;99.90
37530;DHT22;23374;52.758;6.872;2023-02-18T15:05:39;11.50;99.90
37530;DHT22;23374;52.758;6.872;2023-02-18T15:08:14;11.50;57.60
37530;DHT22;23374;52.758;6.872;2023-02-18T15:10:51;11.50;98.90
37530;DHT22;23374;52.758;6.872;2023-02-18T15:13:34;11.50;99.90
37530;DHT22;23374;52.758;6.872;2023-02-18T15:16:05;11.50;24.00
37530;DHT22;23374;52.758;6.872;2023-02-18T15:18:47;11.50;99.90
37530;DHT22;23374;52.758;6.872;2023-02-18T15:21:17;11.50;1.00
37530;DHT22;23374;52.758;6.872;2023-02-18T15:23:39;11.50;1.00
37530;DHT22;23374;52.758;6.872;2023-02-18T15:26:00;11.50;43.90
37530;DHT22;23374;52.758;6.872;2023-02-18T15:28:32;11.50;27.00
37530;DHT22;23374;52.758;6.872;2023-02-18T15:30:54;11.50;1.00
37530;DHT22;23374;52.758;6.872;2023-02-18T15:33:18;11.50;1.00
37530;DHT22;23374;52.758;6.872;2023-02-18T15:35:41;11.40;1.00
37530;DHT22;23374;52.758;6.872;2023-02-18T15:38:01;11.40;1.00
37530;DHT22;23374;52.758;6.872;2023-02-18T15:40:30;11.40;1.00
37530;DHT22;23374;52.758;6.872;2023-02-18T15:42:56;11.40;1.00
37530;DHT22;23374;52.758;6.872;2023-02-18T15:45:53;11.40;1.00
37530;DHT22;23374;52.758;6.872;2023-02-18T15:48:43;11.40;1.00
37530;DHT22;23374;52.758;6.872;2023-02-18T15:51:11;11.30;1.00
37530;DHT22;23374;52.758;6.872;2023-02-18T15:53:37;11.30;1.00
37530;DHT22;23374;52.758;6.872;2023-02-18T15:56:05;11.30;1.00
37530;DHT22;23374;52.758;6.872;2023-02-18T15:58:30;11.30;1.00
37530;DHT22;23374;52.758;6.872;2023-02-18T16:00:54;11.30;1.00
37530;DHT22;23374;52.758;6.872;2023-02-18T16:06:54;11.30;1.00
37530;DHT22;23374;52.758;6.872;2023-02-18T16:09:32;11.30;1.00
37530;DHT22;23374;52.758;6.872;2023-02-18T16:11:59;11.20;1.00
37530;DHT22;23374;52.758;6.872;2023-02-18T16:14:46;11.30;1.00
37530;DHT22;23374;52.758;6.872;2023-02-18T16:18:59;11.20;1.00
37530;DHT22;23374;52.758;6.872;2023-02-18T16:21:35;11.20;1.00
37530;DHT22;23374;52.758;6.872;2023-02-18T16:24:00;11.20;1.00
37530;DHT22;23374;52.758;6.872;2023-02-18T16:26:42;11.20;1.00
37530;DHT22;23374;52.758;6.872;2023-02-18T16:29:14;11.20;1.00
37530;DHT22;23374;52.758;6.872;2023-02-18T16:31:34;11.20;1.00
37530;DHT22;23374;52.758;6.872;2023-02-18T16:33:55;11.10;1.00
37530;DHT22;23374;52.758;6.872;2023-02-18T16:36:16;11.10;1.00
37530;DHT22;23374;52.758;6.872;2023-02-18T16:38:36;11.10;1.00
37530;DHT22;23374;52.758;6.872;2023-02-18T16:40:57;11.10;1.80
37530;DHT22;23374;52.758;6.872;2023-02-18T16:43:24;11.00;1.00
37530;DHT22;23374;52.758;6.872;2023-02-18T16:45:55;11.00;1.00
37530;DHT22;23374;52.758;6.872;2023-02-18T16:48:32;11.00;1.00
37530;DHT22;23374;52.758;6.872;2023-02-18T16:50:52;11.00;1.00
37530;DHT22;23374;52.758;6.872;2023-02-18T16:53:13;11.00;1.00
37530;DHT22;23374;52.758;6.872;2023-02-18T16:55:33;11.00;1.00
37530;DHT22;23374;52.758;6.872;2023-02-18T16:57:54;11.00;23.40
37530;DHT22;23374;52.758;6.872;2023-02-18T17:00:16;11.00;94.20
37530;DHT22;23374;52.758;6.872;2023-02-18T17:02:37;11.00;1.00
37530;DHT22;23374;52.758;6.872;2023-02-18T17:04:57;11.00;20.30
37530;DHT22;23374;52.758;6.872;2023-02-18T17:07:18;10.90;1.00
37530;DHT22;23374;52.758;6.872;2023-02-18T17:09:38;10.90;1.00
37530;DHT22;23374;52.758;6.872;2023-02-18T17:11:58;10.90;32.60
37530;DHT22;23374;52.758;6.872;2023-02-18T17:14:22;10.90;1.00
37530;DHT22;23374;52.758;6.872;2023-02-18T17:16:47;10.90;3.10
37530;DHT22;23374;52.758;6.872;2023-02-18T17:19:11;10.90;1.00
37530;DHT22;23374;52.758;6.872;2023-02-18T17:21:31;10.90;1.00
37530;DHT22;23374;52.758;6.872;2023-02-18T17:23:52;10.90;1.00
37530;DHT22;23374;52.758;6.872;2023-02-18T17:26:23;10.90;1.00
37530;DHT22;23374;52.758;6.872;2023-02-18T17:28:43;10.90;1.00
37530;DHT22;23374;52.758;6.872;2023-02-18T17:31:04;10.90;42.00
37530;DHT22;23374;52.758;6.872;2023-02-18T17:33:24;10.90;51.50
37530;DHT22;23374;52.758;6.872;2023-02-18T17:35:45;10.80;1.00
37530;DHT22;23374;52.758;6.872;2023-02-18T17:38:15;10.90;42.60
37530;DHT22;23374;52.758;6.872;2023-02-18T17:40:36;10.80;1.00
37530;DHT22;23374;52.758;6.872;2023-02-18T17:42:56;10.80;10.60
37530;DHT22;23374;52.758;6.872;2023-02-18T17:45:30;10.80;68.30
37530;DHT22;23374;52.758;6.872;2023-02-18T17:47:52;10.80;7.40
37530;DHT22;23374;52.758;6.872;2023-02-18T17:50:12;10.80;99.90
37530;DHT22;23374;52.758;6.872;2023-02-18T17:52:33;10.80;99.90